sensor_id;sensor_type;location;lat;lon;timestamp;P1;durP1;ratioP1;P2;durP2;ratioP2
33138;SDS011;19501;50.948;5.316;2023-05-07T00:00:22;15.50;;;7.78;;
33138;SDS011;19501;50.948;5.316;2023-05-07T00:02:48;17.15;;;8.23;;
33138;SDS011;19501;50.948;5.316;2023-05-07T00:05:14;17.55;;;8.65;;
33138;SDS011;19501;50.948;5.316;2023-05-07T00:07:39;20.17;;;9.52;;
33138;SDS011;19501;50.948;5.316;2023-05-07T00:10:05;19.92;;;9.32;;
33138;SDS011;19501;50.948;5.316;2023-05-07T00:12:32;18.08;;;9.15;;
33138;SDS011;19501;50.948;5.316;2023-05-07T00:14:59;20.08;;;9.38;;
33138;SDS011;19501;50.948;5.316;2023-05-07T00:17:25;22.80;;;10.20;;
33138;SDS011;19501;50.948;5.316;2023-05-07T00:19:51;20.92;;;10.50;;
33138;SDS011;19501;50.948;5.316;2023-05-07T00:22:17;18.75;;;9.75;;
33138;SDS011;19501;50.948;5.316;2023-05-07T00:24:42;20.08;;;10.00;;
33138;SDS011;19501;50.948;5.316;2023-05-07T00:27:08;24.15;;;10.55;;
33138;SDS011;19501;50.948;5.316;2023-05-07T00:29:36;21.73;;;9.73;;
33138;SDS011;19501;50.948;5.316;2023-05-07T00:32:02;18.92;;;9.65;;
33138;SDS011;19501;50.948;5.316;2023-05-07T00:34:28;20.23;;;9.57;;
33138;SDS011;19501;50.948;5.316;2023-05-07T00:36:53;18.92;;;9.90;;
33138;SDS011;19501;50.948;5.316;2023-05-07T00:39:21;18.58;;;10.00;;
33138;SDS011;19501;50.948;5.316;2023-05-07T00:41:47;22.58;;;9.70;;
33138;SDS011;19501;50.948;5.316;2023-05-07T00:44:13;19.90;;;9.85;;
33138;SDS011;19501;50.948;5.316;2023-05-07T00:46:39;20.70;;;9.50;;
33138;SDS011;19501;50.948;5.316;2023-05-07T00:49:05;19.15;;;9.60;;
33138;SDS011;19501;50.948;5.316;2023-05-07T00:51:31;21.73;;;10.07;;
33138;SDS011;19501;50.948;5.316;2023-05-07T00:53:58;20.42;;;10.27;;
33138;SDS011;19501;50.948;5.316;2023-05-07T00:56:24;18.83;;;9.65;;
33138;SDS011;19501;50.948;5.316;2023-05-07T00:58:50;19.85;;;10.20;;
33138;SDS011;19501;50.948;5.316;2023-05-07T01:01:16;20.60;;;9.60;;
33138;SDS011;19501;50.948;5.316;2023-05-07T01:03:42;20.17;;;10.30;;
33138;SDS011;19501;50.948;5.316;2023-05-07T01:06:08;22.02;;;10.65;;
33138;SDS011;19501;50.948;5.316;2023-05-07T01:08:37;20.23;;;10.82;;
33138;SDS011;19501;50.948;5.316;2023-05-07T01:11:04;22.77;;;9.95;;
33138;SDS011;19501;50.948;5.316;2023-05-07T01:13:31;20.80;;;11.05;;
33138;SDS011;19501;50.948;5.316;2023-05-07T01:15:58;22.67;;;10.38;;
33138;SDS011;19501;50.948;5.316;2023-05-07T01:18:24;20.30;;;10.45;;
33138;SDS011;19501;50.948;5.316;2023-05-07T01:20:51;19.38;;;10.32;;
33138;SDS011;19501;50.948;5.316;2023-05-07T01:23:17;22.17;;;9.88;;
33138;SDS011;19501;50.948;5.316;2023-05-07T01:25:50;20.65;;;10.18;;
33138;SDS011;19501;50.948;5.316;2023-05-07T01:28:19;19.35;;;9.93;;
33138;SDS011;19501;50.948;5.316;2023-05-07T01:30:48;19.42;;;10.85;;
33138;SDS011;19501;50.948;5.316;2023-05-07T01:33:19;21.50;;;10.68;;
33138;SDS011;19501;50.948;5.316;2023-05-07T01:35:49;23.63;;;11.43;;
33138;SDS011;19501;50.948;5.316;2023-05-07T01:38:18;22.90;;;11.20;;
33138;SDS011;19501;50.948;5.316;2023-05-07T01:40:45;21.75;;;11.43;;
33138;SDS011;19501;50.948;5.316;2023-05-07T01:43:11;24.20;;;11.50;;
33138;SDS011;19501;50.948;5.316;2023-05-07T01:45:37;21.73;;;10.82;;
33138;SDS011;19501;50.948;5.316;2023-05-07T01:48:03;21.38;;;11.10;;
33138;SDS011;19501;50.948;5.316;2023-05-07T01:50:31;22.83;;;11.30;;
33138;SDS011;19501;50.948;5.316;2023-05-07T01:52:58;24.35;;;11.13;;
33138;SDS011;19501;50.948;5.316;2023-05-07T01:55:27;21.33;;;10.88;;
33138;SDS011;19501;50.948;5.316;2023-05-07T01:57:52;23.50;;;11.82;;
33138;SDS011;19501;50.948;5.316;2023-05-07T02:00:20;19.52;;;9.23;;
33138;SDS011;19501;50.948;5.316;2023-05-07T02:02:48;18.85;;;10.13;;
33138;SDS011;19501;50.948;5.316;2023-05-07T02:05:14;18.98;;;9.30;;
33138;SDS011;19501;50.948;5.316;2023-05-07T02:07:40;19.80;;;9.95;;
33138;SDS011;19501;50.948;5.316;2023-05-07T02:10:05;19.70;;;10.18;;
33138;SDS011;19501;50.948;5.316;2023-05-07T02:12:31;19.58;;;9.38;;
33138;SDS011;19501;50.948;5.316;2023-05-07T02:14:57;22.38;;;10.18;;
33138;SDS011;19501;50.948;5.316;2023-05-07T02:17:23;20.88;;;10.43;;
33138;SDS011;19501;50.948;5.316;2023-05-07T02:19:48;21.90;;;9.93;;
33138;SDS011;19501;50.948;5.316;2023-05-07T02:22:14;21.88;;;9.93;;
33138;SDS011;19501;50.948;5.316;2023-05-07T02:24:40;19.98;;;9.32;;
33138;SDS011;19501;50.948;5.316;2023-05-07T02:27:06;20.73;;;10.02;;
33138;SDS011;19501;50.948;5.316;2023-05-07T02:29:31;20.67;;;10.60;;
33138;SDS011;19501;50.948;5.316;2023-05-07T02:31:57;19.58;;;9.45;;
33138;SDS011;19501;50.948;5.316;2023-05-07T02:34:23;21.67;;;9.77;;
33138;SDS011;19501;50.948;5.316;2023-05-07T02:36:48;20.40;;;9.48;;
33138;SDS011;19501;50.948;5.316;2023-05-07T02:39:14;20.17;;;10.02;;
33138;SDS011;19501;50.948;5.316;2023-05-07T02:41:40;21.45;;;10.27;;
33138;SDS011;19501;50.948;5.316;2023-05-07T02:44:06;18.10;;;10.07;;
33138;SDS011;19501;50.948;5.316;2023-05-07T02:46:31;22.83;;;11.80;;
33138;SDS011;19501;50.948;5.316;2023-05-07T02:48:57;24.48;;;12.48;;
33138;SDS011;19501;50.948;5.316;2023-05-07T02:51:23;23.63;;;11.32;;
33138;SDS011;19501;50.948;5.316;2023-05-07T02:53:50;21.42;;;10.73;;
33138;SDS011;19501;50.948;5.316;2023-05-07T02:56:16;22.48;;;11.20;;
33138;SDS011;19501;50.948;5.316;2023-05-07T02:58:42;23.92;;;11.02;;
33138;SDS011;19501;50.948;5.316;2023-05-07T03:01:08;23.20;;;11.90;;
33138;SDS011;19501;50.948;5.316;2023-05-07T03:03:34;21.95;;;11.00;;
33138;SDS011;19501;50.948;5.316;2023-05-07T03:06:00;23.67;;;12.05;;
33138;SDS011;19501;50.948;5.316;2023-05-07T03:08:26;21.15;;;11.75;;
33138;SDS011;19501;50.948;5.316;2023-05-07T03:10:51;22.60;;;12.25;;
33138;SDS011;19501;50.948;5.316;2023-05-07T03:13:20;20.90;;;11.13;;
33138;SDS011;19501;50.948;5.316;2023-05-07T03:15:46;22.90;;;12.45;;
33138;SDS011;19501;50.948;5.316;2023-05-07T03:18:11;23.52;;;12.50;;
33138;SDS011;19501;50.948;5.316;2023-05-07T03:20:37;23.75;;;12.15;;
33138;SDS011;19501;50.948;5.316;2023-05-07T03:23:03;23.63;;;12.13;;
33138;SDS011;19501;50.948;5.316;2023-05-07T03:25:28;23.92;;;12.95;;
33138;SDS011;19501;50.948;5.316;2023-05-07T03:27:59;21.63;;;11.32;;
33138;SDS011;19501;50.948;5.316;2023-05-07T03:30:25;22.58;;;11.75;;
33138;SDS011;19501;50.948;5.316;2023-05-07T03:32:53;23.67;;;11.55;;
33138;SDS011;19501;50.948;5.316;2023-05-07T03:35:19;26.98;;;13.30;;
33138;SDS011;19501;50.948;5.316;2023-05-07T03:37:44;23.33;;;12.70;;
33138;SDS011;19501;50.948;5.316;2023-05-07T03:40:10;24.65;;;11.82;;
33138;SDS011;19501;50.948;5.316;2023-05-07T03:42:37;23.98;;;11.73;;
33138;SDS011;19501;50.948;5.316;2023-05-07T03:45:03;23.58;;;12.27;;
33138;SDS011;19501;50.948;5.316;2023-05-07T03:47:28;22.08;;;12.32;;
33138;SDS011;19501;50.948;5.316;2023-05-07T03:49:55;22.85;;;11.77;;
33138;SDS011;19501;50.948;5.316;2023-05-07T03:52:20;23.17;;;11.95;;
33138;SDS011;19501;50.948;5.316;2023-05-07T03:54:50;27.98;;;11.48;;
33138;SDS011;19501;50.948;5.316;2023-05-07T03:57:17;24.00;;;11.80;;
33138;SDS011;19501;50.948;5.316;2023-05-07T03:59:42;25.02;;;12.48;;
33138;SDS011;19501;50.948;5.316;2023-05-07T04:02:08;23.58;;;12.65;;
33138;SDS011;19501;50.948;5.316;2023-05-07T04:04:34;24.88;;;12.73;;
33138;SDS011;19501;50.948;5.316;2023-05-07T04:06:59;25.48;;;11.88;;
33138;SDS011;19501;50.948;5.316;2023-05-07T04:09:25;23.27;;;11.82;;
33138;SDS011;19501;50.948;5.316;2023-05-07T04:11:53;21.05;;;11.30;;
33138;SDS011;19501;50.948;5.316;2023-05-07T04:14:19;19.42;;;10.60;;
33138;SDS011;19501;50.948;5.316;2023-05-07T04:16:44;20.77;;;10.35;;
33138;SDS011;19501;50.948;5.316;2023-05-07T04:19:10;22.63;;;11.55;;
33138;SDS011;19501;50.948;5.316;2023-05-07T04:21:35;22.23;;;11.23;;
33138;SDS011;19501;50.948;5.316;2023-05-07T04:24:02;22.70;;;11.38;;
33138;SDS011;19501;50.948;5.316;2023-05-07T04:26:28;22.55;;;11.75;;
33138;SDS011;19501;50.948;5.316;2023-05-07T04:28:54;21.27;;;12.05;;
33138;SDS011;19501;50.948;5.316;2023-05-07T04:31:20;25.92;;;11.88;;
33138;SDS011;19501;50.948;5.316;2023-05-07T04:33:46;22.38;;;12.52;;
33138;SDS011;19501;50.948;5.316;2023-05-07T04:36:11;23.13;;;12.57;;
33138;SDS011;19501;50.948;5.316;2023-05-07T04:38:37;22.38;;;11.70;;
33138;SDS011;19501;50.948;5.316;2023-05-07T04:41:04;23.95;;;11.90;;
33138;SDS011;19501;50.948;5.316;2023-05-07T04:43:30;24.45;;;12.25;;
33138;SDS011;19501;50.948;5.316;2023-05-07T04:45:56;21.05;;;11.63;;
33138;SDS011;19501;50.948;5.316;2023-05-07T04:48:22;24.17;;;11.98;;
33138;SDS011;19501;50.948;5.316;2023-05-07T04:50:48;22.20;;;12.02;;
33138;SDS011;19501;50.948;5.316;2023-05-07T04:53:14;25.98;;;12.13;;
33138;SDS011;19501;50.948;5.316;2023-05-07T04:55:40;23.58;;;12.13;;
33138;SDS011;19501;50.948;5.316;2023-05-07T04:58:05;21.83;;;11.57;;
33138;SDS011;19501;50.948;5.316;2023-05-07T05:00:31;24.42;;;12.25;;
33138;SDS011;19501;50.948;5.316;2023-05-07T05:02:57;22.85;;;11.30;;
33138;SDS011;19501;50.948;5.316;2023-05-07T05:05:22;22.15;;;11.40;;
33138;SDS011;19501;50.948;5.316;2023-05-07T05:07:48;20.05;;;10.77;;
33138;SDS011;19501;50.948;5.316;2023-05-07T05:10:13;21.92;;;11.43;;
33138;SDS011;19501;50.948;5.316;2023-05-07T05:12:39;21.38;;;11.73;;
33138;SDS011;19501;50.948;5.316;2023-05-07T05:15:05;22.13;;;11.48;;
33138;SDS011;19501;50.948;5.316;2023-05-07T05:17:31;23.38;;;11.05;;
33138;SDS011;19501;50.948;5.316;2023-05-07T05:19:59;24.80;;;11.57;;
33138;SDS011;19501;50.948;5.316;2023-05-07T05:22:24;20.20;;;10.77;;
33138;SDS011;19501;50.948;5.316;2023-05-07T05:24:50;24.42;;;12.30;;
33138;SDS011;19501;50.948;5.316;2023-05-07T05:27:16;21.23;;;12.05;;
33138;SDS011;19501;50.948;5.316;2023-05-07T05:29:42;22.55;;;11.93;;
33138;SDS011;19501;50.948;5.316;2023-05-07T05:32:07;24.67;;;13.70;;
33138;SDS011;19501;50.948;5.316;2023-05-07T05:34:33;22.95;;;12.90;;
33138;SDS011;19501;50.948;5.316;2023-05-07T05:36:59;26.20;;;13.18;;
33138;SDS011;19501;50.948;5.316;2023-05-07T05:39:24;25.73;;;13.90;;
33138;SDS011;19501;50.948;5.316;2023-05-07T05:41:50;25.42;;;13.25;;
33138;SDS011;19501;50.948;5.316;2023-05-07T05:44:16;26.25;;;14.00;;
33138;SDS011;19501;50.948;5.316;2023-05-07T05:46:41;25.80;;;14.02;;
33138;SDS011;19501;50.948;5.316;2023-05-07T05:49:07;25.92;;;13.90;;
33138;SDS011;19501;50.948;5.316;2023-05-07T05:51:33;26.63;;;13.90;;
33138;SDS011;19501;50.948;5.316;2023-05-07T05:53:59;28.45;;;16.02;;
33138;SDS011;19501;50.948;5.316;2023-05-07T05:56:24;26.20;;;14.45;;
33138;SDS011;19501;50.948;5.316;2023-05-07T05:58:50;25.70;;;14.43;;
33138;SDS011;19501;50.948;5.316;2023-05-07T06:01:17;25.70;;;15.15;;
33138;SDS011;19501;50.948;5.316;2023-05-07T06:03:43;26.77;;;14.65;;
33138;SDS011;19501;50.948;5.316;2023-05-07T06:06:09;22.63;;;14.02;;
33138;SDS011;19501;50.948;5.316;2023-05-07T06:08:35;23.98;;;14.35;;
33138;SDS011;19501;50.948;5.316;2023-05-07T06:11:00;23.70;;;13.90;;
33138;SDS011;19501;50.948;5.316;2023-05-07T06:13:26;24.55;;;13.77;;
33138;SDS011;19501;50.948;5.316;2023-05-07T06:15:52;25.77;;;14.25;;
33138;SDS011;19501;50.948;5.316;2023-05-07T06:18:18;25.58;;;15.07;;
33138;SDS011;19501;50.948;5.316;2023-05-07T06:20:43;24.80;;;13.80;;
33138;SDS011;19501;50.948;5.316;2023-05-07T06:23:09;22.17;;;13.57;;
33138;SDS011;19501;50.948;5.316;2023-05-07T06:25:35;23.23;;;13.55;;
33138;SDS011;19501;50.948;5.316;2023-05-07T06:28:00;22.40;;;13.20;;
33138;SDS011;19501;50.948;5.316;2023-05-07T06:30:26;23.42;;;13.38;;
33138;SDS011;19501;50.948;5.316;2023-05-07T06:32:52;21.17;;;13.02;;
33138;SDS011;19501;50.948;5.316;2023-05-07T06:35:17;22.23;;;13.07;;
33138;SDS011;19501;50.948;5.316;2023-05-07T06:37:44;23.92;;;13.73;;
33138;SDS011;19501;50.948;5.316;2023-05-07T06:40:10;23.30;;;12.90;;
33138;SDS011;19501;50.948;5.316;2023-05-07T06:42:36;23.83;;;13.10;;
33138;SDS011;19501;50.948;5.316;2023-05-07T06:45:02;26.50;;;12.50;;
33138;SDS011;19501;50.948;5.316;2023-05-07T06:47:28;21.98;;;12.60;;
33138;SDS011;19501;50.948;5.316;2023-05-07T06:49:54;21.80;;;12.13;;
33138;SDS011;19501;50.948;5.316;2023-05-07T06:52:20;20.25;;;11.93;;
33138;SDS011;19501;50.948;5.316;2023-05-07T06:54:46;22.70;;;12.18;;
33138;SDS011;19501;50.948;5.316;2023-05-07T06:57:13;24.92;;;12.80;;
33138;SDS011;19501;50.948;5.316;2023-05-07T06:59:39;22.27;;;12.75;;
33138;SDS011;19501;50.948;5.316;2023-05-07T07:02:05;25.70;;;12.73;;
33138;SDS011;19501;50.948;5.316;2023-05-07T07:04:31;20.05;;;11.35;;
33138;SDS011;19501;50.948;5.316;2023-05-07T07:06:56;18.75;;;10.77;;
33138;SDS011;19501;50.948;5.316;2023-05-07T07:09:24;21.02;;;10.82;;
33138;SDS011;19501;50.948;5.316;2023-05-07T07:11:50;25.05;;;10.63;;
33138;SDS011;19501;50.948;5.316;2023-05-07T07:14:15;21.50;;;10.13;;
33138;SDS011;19501;50.948;5.316;2023-05-07T07:16:41;19.30;;;10.48;;
33138;SDS011;19501;50.948;5.316;2023-05-07T07:19:07;21.70;;;11.23;;
33138;SDS011;19501;50.948;5.316;2023-05-07T07:21:32;20.25;;;10.50;;
33138;SDS011;19501;50.948;5.316;2023-05-07T07:23:58;20.27;;;10.52;;
33138;SDS011;19501;50.948;5.316;2023-05-07T07:26:24;19.17;;;10.60;;
33138;SDS011;19501;50.948;5.316;2023-05-07T07:28:49;19.92;;;10.98;;
33138;SDS011;19501;50.948;5.316;2023-05-07T07:31:15;19.65;;;10.30;;
33138;SDS011;19501;50.948;5.316;2023-05-07T07:33:41;20.95;;;11.15;;
33138;SDS011;19501;50.948;5.316;2023-05-07T07:36:06;19.00;;;10.27;;
33138;SDS011;19501;50.948;5.316;2023-05-07T07:38:32;21.45;;;10.48;;
33138;SDS011;19501;50.948;5.316;2023-05-07T07:40:58;20.50;;;10.13;;
33138;SDS011;19501;50.948;5.316;2023-05-07T07:43:24;19.15;;;10.15;;
33138;SDS011;19501;50.948;5.316;2023-05-07T07:45:53;18.63;;;9.85;;
33138;SDS011;19501;50.948;5.316;2023-05-07T07:48:18;20.23;;;10.48;;
33138;SDS011;19501;50.948;5.316;2023-05-07T07:50:44;19.90;;;9.95;;
33138;SDS011;19501;50.948;5.316;2023-05-07T07:53:13;18.08;;;9.48;;
33138;SDS011;19501;50.948;5.316;2023-05-07T07:55:39;22.90;;;10.93;;
33138;SDS011;19501;50.948;5.316;2023-05-07T07:58:05;18.10;;;9.63;;
33138;SDS011;19501;50.948;5.316;2023-05-07T08:00:30;19.92;;;9.75;;
33138;SDS011;19501;50.948;5.316;2023-05-07T08:02:56;19.77;;;9.52;;
33138;SDS011;19501;50.948;5.316;2023-05-07T08:05:22;18.35;;;9.65;;
33138;SDS011;19501;50.948;5.316;2023-05-07T08:07:48;18.77;;;9.30;;
33138;SDS011;19501;50.948;5.316;2023-05-07T08:10:18;18.63;;;8.63;;
33138;SDS011;19501;50.948;5.316;2023-05-07T08:12:50;16.35;;;7.95;;
33138;SDS011;19501;50.948;5.316;2023-05-07T08:15:16;16.73;;;8.55;;
33138;SDS011;19501;50.948;5.316;2023-05-07T08:17:42;23.10;;;8.90;;
33138;SDS011;19501;50.948;5.316;2023-05-07T08:20:10;15.13;;;7.90;;
33138;SDS011;19501;50.948;5.316;2023-05-07T08:22:36;18.88;;;9.10;;
33138;SDS011;19501;50.948;5.316;2023-05-07T08:25:02;20.88;;;9.10;;
33138;SDS011;19501;50.948;5.316;2023-05-07T08:27:28;17.45;;;8.88;;
33138;SDS011;19501;50.948;5.316;2023-05-07T08:29:54;17.60;;;9.25;;
33138;SDS011;19501;50.948;5.316;2023-05-07T08:32:20;21.88;;;10.00;;
33138;SDS011;19501;50.948;5.316;2023-05-07T08:34:46;21.65;;;9.00;;
33138;SDS011;19501;50.948;5.316;2023-05-07T08:37:12;20.75;;;10.15;;
33138;SDS011;19501;50.948;5.316;2023-05-07T08:39:38;18.98;;;9.23;;
33138;SDS011;19501;50.948;5.316;2023-05-07T08:42:04;21.50;;;9.80;;
33138;SDS011;19501;50.948;5.316;2023-05-07T08:44:32;22.50;;;10.00;;
33138;SDS011;19501;50.948;5.316;2023-05-07T08:47:00;19.25;;;9.82;;
33138;SDS011;19501;50.948;5.316;2023-05-07T08:49:27;21.55;;;10.25;;
33138;SDS011;19501;50.948;5.316;2023-05-07T08:51:53;21.45;;;11.13;;
33138;SDS011;19501;50.948;5.316;2023-05-07T08:54:21;19.33;;;11.05;;
33138;SDS011;19501;50.948;5.316;2023-05-07T08:56:47;23.67;;;10.63;;
33138;SDS011;19501;50.948;5.316;2023-05-07T08:59:13;19.40;;;10.25;;
33138;SDS011;19501;50.948;5.316;2023-05-07T09:01:39;21.55;;;10.30;;
33138;SDS011;19501;50.948;5.316;2023-05-07T09:04:05;19.80;;;10.05;;
33138;SDS011;19501;50.948;5.316;2023-05-07T09:06:32;21.60;;;10.30;;
33138;SDS011;19501;50.948;5.316;2023-05-07T09:08:58;20.88;;;10.65;;
33138;SDS011;19501;50.948;5.316;2023-05-07T09:11:26;21.10;;;10.27;;
33138;SDS011;19501;50.948;5.316;2023-05-07T09:13:55;19.42;;;9.48;;
33138;SDS011;19501;50.948;5.316;2023-05-07T09:16:23;21.00;;;10.60;;
33138;SDS011;19501;50.948;5.316;2023-05-07T09:18:53;23.80;;;10.85;;
33138;SDS011;19501;50.948;5.316;2023-05-07T09:21:20;22.17;;;10.07;;
33138;SDS011;19501;50.948;5.316;2023-05-07T09:23:52;20.20;;;10.57;;
33138;SDS011;19501;50.948;5.316;2023-05-07T09:26:21;20.20;;;10.80;;
33138;SDS011;19501;50.948;5.316;2023-05-07T09:28:47;21.10;;;11.45;;
33138;SDS011;19501;50.948;5.316;2023-05-07T09:31:13;21.98;;;11.25;;
33138;SDS011;19501;50.948;5.316;2023-05-07T09:33:39;21.83;;;11.80;;
33138;SDS011;19501;50.948;5.316;2023-05-07T09:36:08;21.92;;;11.55;;
33138;SDS011;19501;50.948;5.316;2023-05-07T09:38:35;23.42;;;11.63;;
33138;SDS011;19501;50.948;5.316;2023-05-07T09:41:02;21.17;;;10.80;;
33138;SDS011;19501;50.948;5.316;2023-05-07T09:43:38;21.45;;;11.45;;
33138;SDS011;19501;50.948;5.316;2023-05-07T09:46:10;23.70;;;12.45;;
33138;SDS011;19501;50.948;5.316;2023-05-07T09:48:38;22.80;;;11.15;;
33138;SDS011;19501;50.948;5.316;2023-05-07T09:51:11;22.85;;;9.80;;
33138;SDS011;19501;50.948;5.316;2023-05-07T09:54:15;20.70;;;9.57;;
33138;SDS011;19501;50.948;5.316;2023-05-07T09:56:45;22.60;;;8.13;;
33138;SDS011;19501;50.948;5.316;2023-05-07T09:59:12;21.33;;;8.75;;
33138;SDS011;19501;50.948;5.316;2023-05-07T10:01:40;22.10;;;8.50;;
33138;SDS011;19501;50.948;5.316;2023-05-07T10:04:08;17.92;;;7.97;;
33138;SDS011;19501;50.948;5.316;2023-05-07T10:06:34;20.95;;;9.43;;
33138;SDS011;19501;50.948;5.316;2023-05-07T10:09:01;20.17;;;9.07;;
33138;SDS011;19501;50.948;5.316;2023-05-07T10:11:27;21.30;;;9.13;;
33138;SDS011;19501;50.948;5.316;2023-05-07T10:13:53;20.92;;;9.88;;
33138;SDS011;19501;50.948;5.316;2023-05-07T10:16:19;24.02;;;10.73;;
33138;SDS011;19501;50.948;5.316;2023-05-07T10:18:46;22.85;;;9.68;;
33138;SDS011;19501;50.948;5.316;2023-05-07T10:21:17;23.35;;;9.95;;
33138;SDS011;19501;50.948;5.316;2023-05-07T10:23:51;22.45;;;10.43;;
33138;SDS011;19501;50.948;5.316;2023-05-07T10:26:23;24.30;;;9.93;;
33138;SDS011;19501;50.948;5.316;2023-05-07T10:28:52;21.05;;;10.38;;
33138;SDS011;19501;50.948;5.316;2023-05-07T10:33:55;21.83;;;10.00;;
33138;SDS011;19501;50.948;5.316;2023-05-07T10:36:21;23.13;;;10.07;;
33138;SDS011;19501;50.948;5.316;2023-05-07T10:38:48;24.30;;;11.63;;
33138;SDS011;19501;50.948;5.316;2023-05-07T10:41:14;21.23;;;11.07;;
33138;SDS011;19501;50.948;5.316;2023-05-07T10:43:42;25.15;;;11.63;;
33138;SDS011;19501;50.948;5.316;2023-05-07T10:46:09;24.08;;;12.35;;
33138;SDS011;19501;50.948;5.316;2023-05-07T10:51:32;26.35;;;11.95;;
33138;SDS011;19501;50.948;5.316;2023-05-07T10:56:36;22.73;;;11.73;;
33138;SDS011;19501;50.948;5.316;2023-05-07T11:01:56;22.77;;;11.52;;
33138;SDS011;19501;50.948;5.316;2023-05-07T11:04:23;28.25;;;12.10;;
33138;SDS011;19501;50.948;5.316;2023-05-07T11:12:16;25.20;;;10.85;;
33138;SDS011;19501;50.948;5.316;2023-05-07T11:14:43;24.73;;;10.63;;
33138;SDS011;19501;50.948;5.316;2023-05-07T11:17:10;25.98;;;11.15;;
33138;SDS011;19501;50.948;5.316;2023-05-07T11:19:49;24.98;;;9.93;;
33138;SDS011;19501;50.948;5.316;2023-05-07T11:25:01;21.40;;;9.57;;
33138;SDS011;19501;50.948;5.316;2023-05-07T11:27:28;21.50;;;10.32;;
33138;SDS011;19501;50.948;5.316;2023-05-07T11:29:54;21.85;;;9.55;;
33138;SDS011;19501;50.948;5.316;2023-05-07T11:32:27;24.50;;;10.20;;
33138;SDS011;19501;50.948;5.316;2023-05-07T11:34:54;23.67;;;10.60;;
33138;SDS011;19501;50.948;5.316;2023-05-07T11:37:21;23.38;;;10.25;;
33138;SDS011;19501;50.948;5.316;2023-05-07T11:39:47;22.27;;;9.50;;
33138;SDS011;19501;50.948;5.316;2023-05-07T11:44:51;22.10;;;9.55;;
33138;SDS011;19501;50.948;5.316;2023-05-07T11:47:17;25.08;;;10.93;;
33138;SDS011;19501;50.948;5.316;2023-05-07T11:49:45;26.52;;;10.75;;
33138;SDS011;19501;50.948;5.316;2023-05-07T11:52:13;21.15;;;9.55;;
33138;SDS011;19501;50.948;5.316;2023-05-07T11:54:39;20.85;;;9.30;;
33138;SDS011;19501;50.948;5.316;2023-05-07T11:57:05;22.42;;;10.15;;
33138;SDS011;19501;50.948;5.316;2023-05-07T11:59:39;23.52;;;9.73;;
33138;SDS011;19501;50.948;5.316;2023-05-07T12:02:13;20.27;;;9.10;;
33138;SDS011;19501;50.948;5.316;2023-05-07T12:04:40;21.10;;;9.98;;
33138;SDS011;19501;50.948;5.316;2023-05-07T12:07:10;21.83;;;9.23;;
33138;SDS011;19501;50.948;5.316;2023-05-07T12:09:38;23.48;;;8.15;;
33138;SDS011;19501;50.948;5.316;2023-05-07T12:12:04;19.50;;;9.23;;
33138;SDS011;19501;50.948;5.316;2023-05-07T12:14:31;19.60;;;8.75;;
33138;SDS011;19501;50.948;5.316;2023-05-07T12:16:57;20.25;;;8.45;;
33138;SDS011;19501;50.948;5.316;2023-05-07T12:19:27;18.58;;;8.82;;
33138;SDS011;19501;50.948;5.316;2023-05-07T12:21:56;22.00;;;9.65;;
33138;SDS011;19501;50.948;5.316;2023-05-07T12:24:23;21.60;;;9.27;;
33138;SDS011;19501;50.948;5.316;2023-05-07T12:26:48;20.85;;;9.00;;
33138;SDS011;19501;50.948;5.316;2023-05-07T12:29:16;20.00;;;8.98;;
33138;SDS011;19501;50.948;5.316;2023-05-07T12:31:46;22.23;;;8.77;;
33138;SDS011;19501;50.948;5.316;2023-05-07T12:34:11;20.70;;;8.77;;
33138;SDS011;19501;50.948;5.316;2023-05-07T12:36:37;22.45;;;8.13;;
33138;SDS011;19501;50.948;5.316;2023-05-07T12:39:06;19.58;;;7.80;;
33138;SDS011;19501;50.948;5.316;2023-05-07T12:41:52;22.83;;;7.80;;
33138;SDS011;19501;50.948;5.316;2023-05-07T12:44:22;20.58;;;8.05;;
33138;SDS011;19501;50.948;5.316;2023-05-07T12:46:48;20.50;;;7.80;;
33138;SDS011;19501;50.948;5.316;2023-05-07T12:49:14;20.35;;;8.07;;
33138;SDS011;19501;50.948;5.316;2023-05-07T12:51:40;17.63;;;7.40;;
33138;SDS011;19501;50.948;5.316;2023-05-07T12:54:06;18.67;;;6.95;;
33138;SDS011;19501;50.948;5.316;2023-05-07T12:56:31;14.90;;;6.18;;
33138;SDS011;19501;50.948;5.316;2023-05-07T12:59:00;14.38;;;5.97;;
33138;SDS011;19501;50.948;5.316;2023-05-07T13:01:29;16.90;;;6.40;;
33138;SDS011;19501;50.948;5.316;2023-05-07T13:04:00;12.20;;;5.35;;
33138;SDS011;19501;50.948;5.316;2023-05-07T13:06:27;15.25;;;5.82;;
33138;SDS011;19501;50.948;5.316;2023-05-07T13:08:53;14.02;;;6.15;;
33138;SDS011;19501;50.948;5.316;2023-05-07T13:11:19;16.85;;;5.50;;
33138;SDS011;19501;50.948;5.316;2023-05-07T13:13:48;16.95;;;6.35;;
33138;SDS011;19501;50.948;5.316;2023-05-07T13:16:13;17.95;;;6.38;;
33138;SDS011;19501;50.948;5.316;2023-05-07T13:18:39;14.57;;;6.05;;
33138;SDS011;19501;50.948;5.316;2023-05-07T13:21:05;17.48;;;6.70;;
33138;SDS011;19501;50.948;5.316;2023-05-07T13:23:31;15.98;;;7.28;;
33138;SDS011;19501;50.948;5.316;2023-05-07T13:25:57;15.07;;;6.65;;
33138;SDS011;19501;50.948;5.316;2023-05-07T13:28:23;20.98;;;7.53;;
33138;SDS011;19501;50.948;5.316;2023-05-07T13:30:50;15.23;;;6.82;;
33138;SDS011;19501;50.948;5.316;2023-05-07T13:33:17;16.50;;;6.72;;
33138;SDS011;19501;50.948;5.316;2023-05-07T13:35:43;15.98;;;6.57;;
33138;SDS011;19501;50.948;5.316;2023-05-07T13:38:09;14.30;;;5.78;;
33138;SDS011;19501;50.948;5.316;2023-05-07T13:40:34;18.02;;;5.53;;
33138;SDS011;19501;50.948;5.316;2023-05-07T13:43:00;11.90;;;4.75;;
33138;SDS011;19501;50.948;5.316;2023-05-07T13:45:29;16.60;;;5.47;;
33138;SDS011;19501;50.948;5.316;2023-05-07T13:47:55;15.27;;;6.72;;
33138;SDS011;19501;50.948;5.316;2023-05-07T13:50:21;14.35;;;5.75;;
33138;SDS011;19501;50.948;5.316;2023-05-07T13:52:47;15.05;;;5.65;;
33138;SDS011;19501;50.948;5.316;2023-05-07T13:55:18;15.70;;;5.78;;
33138;SDS011;19501;50.948;5.316;2023-05-07T13:57:45;15.45;;;5.63;;
33138;SDS011;19501;50.948;5.316;2023-05-07T14:00:12;16.77;;;5.68;;
33138;SDS011;19501;50.948;5.316;2023-05-07T14:02:39;18.33;;;6.90;;
33138;SDS011;19501;50.948;5.316;2023-05-07T14:05:07;17.08;;;6.32;;
33138;SDS011;19501;50.948;5.316;2023-05-07T14:07:34;14.73;;;6.20;;
33138;SDS011;19501;50.948;5.316;2023-05-07T14:10:00;13.73;;;5.95;;
33138;SDS011;19501;50.948;5.316;2023-05-07T14:12:26;15.13;;;6.03;;
33138;SDS011;19501;50.948;5.316;2023-05-07T14:14:52;16.70;;;7.20;;
33138;SDS011;19501;50.948;5.316;2023-05-07T14:17:20;17.17;;;6.75;;
33138;SDS011;19501;50.948;5.316;2023-05-07T14:19:48;18.05;;;6.93;;
33138;SDS011;19501;50.948;5.316;2023-05-07T14:22:13;15.13;;;6.88;;
33138;SDS011;19501;50.948;5.316;2023-05-07T14:24:40;18.08;;;7.18;;
33138;SDS011;19501;50.948;5.316;2023-05-07T14:27:06;13.70;;;5.60;;
33138;SDS011;19501;50.948;5.316;2023-05-07T14:29:34;15.25;;;5.30;;
33138;SDS011;19501;50.948;5.316;2023-05-07T14:32:01;14.40;;;5.07;;
33138;SDS011;19501;50.948;5.316;2023-05-07T14:34:28;13.55;;;5.60;;
33138;SDS011;19501;50.948;5.316;2023-05-07T14:36:53;15.18;;;5.85;;
33138;SDS011;19501;50.948;5.316;2023-05-07T14:39:20;15.68;;;6.10;;
33138;SDS011;19501;50.948;5.316;2023-05-07T14:41:46;10.70;;;5.43;;
33138;SDS011;19501;50.948;5.316;2023-05-07T14:44:12;14.73;;;6.25;;